Ottumwa Regional Airport
KOTM : now visible

Airfield :











YOU CAN JOIN US ON...

 
LOGIN :

Register | Disclaimer

   EN    FR    IT 

 









Legend :    VFR   Marginal VFR   IFR   Intensive IFR   Very Intensive IFR
Visi :
Ceiling :
>= 8 km
>= 3000ft
5 to 8 km
1000 to 3000 ft
1500m to 5 km
500 to 1000 ft
800 to 1500m
200 to 500 ft
< 800m
< 200 ft
Symbols :   Thunderstorms  Fog  Heavy snow  Heavy precipitations  Wind > 20 kt







- Airport Elevation : 845 ft
- IATA code : OTM


KOTM - Ottumwa Regional

CURRENT METAR :
  • 201653Z AUTO 20009G17KT 10SM CLR 32/25 A2984 RMK AO2 SLP094 T03220250

EXPIRED METARs :
  • 201553Z AUTO 21010G17KT 10SM CLR 31/24 A2983 RMK AO2 SLP090 T03110244
  • 201453Z AUTO 22013G18KT 10SM CLR 30/23 A2984 RMK AO2 SLP094 T03000233 53002

TAF KOTM
Valid from the 20 at 12:00 until the 21 at 12:00 UTC


201139Z 2012/2112 20008KT P6SM SKC
FM210100 13005KT P6SM BKN050
FM210500 VRB05KT P6SM VCSH SCT020 BKN030
KZAU FIR / North America



MET'MAP, your aeronautical weather chart ! - Copyright ORBIFLY December 2007 - Disclaimer

ORBIFLY MET'MAP TEAM :

Programming & Development : Alexandra Zaïnal
Concept & Development : Baudouin d'Aumeries
Co-Development & Prog : Marc-Olivier Méhu
Technical & hardware support : Manuel Goepfert

Contact : metmap@orbifly.com




SOURCES & CREDITS :

   NOAA       Earth
Advisory